Terminal Aerodrome Forecast
Issued by NWS Rapid City, SD

Home | Current Version | Previous Version | Text Only | Print | Product List | Glossary Off
Versions: 1 2 3 4 5 6 7 8 9 10 11 12 13 14 15 16 17 18 19 20 21

000
FTUS43 KUNR 180111 AAA
TAFRAP
TAF AMD
KRAP 180111Z 1801/1824 32025G45KT 5SM -TSRA SCT050CB BKN120
      TEMPO 1801/1802 30050KT TSRA BKN090CB
     FM180200 06006KT P6SM SCT060 BKN200
      TEMPO 1805/1809 VRB30KT TSRA BKN080CB
     FM181100 36006KT P6SM BKN110
     FM181400 03006KT P6SM SCT200=

USA.gov is the U.S. government's official web portal to all federal, state and local government web resources and services.